RKTN/TAE METAR and TAF weather

Enter ICAO airport designator
Station Type Date Time Source
RKTN METAR 2019/04/25 09:00 UTC NOAA

RKTN 250900Z 10008KT 9999 SCT020 OVC030 13/09 Q1009


Station Type Date Time Source
RKTN Decoded METAR 2019/04/25 09:00 UTC NOAA

Taegu Ab, Korea, South (RKTN) 35-54N 128-39E 37M
Apr 25, 2019 - 05:00 AM EDT / 2019.04.25 0900 UTC
Wind: from the E (100 degrees) at 9 MPH (8 KT):0
Visibility: greater than 7 mile(s):0
Sky conditions: overcast
Temperature: 55 F (13 C)
Dew Point: 48 F (9 C)
Relative Humidity: 76%
Pressure (altimeter): 29.80 in. Hg (1009 hPa)
ob: RKTN 250900Z 10008KT 9999 SCT020 OVC030 13/09 Q1009
cycle: 9

Station Type Date Time Source
RKTN TAF 2019/04/25 06:09 UTC NOAA

TAF TAF RKTN 250500Z 2506/2612 13010KT 9999 BKN030 TN12/2521Z TX15/2606Z
BECMG 2509/2510 8000 -RA SCT015 OVC030
BECMG 2511/2512 4800 -RA BR BKN015 OVC030

Example: see airport list